Time;durP1;ratioP1;P1;durP2;ratioP2;P2;SDS_P1;SDS_P2;PMS_P1;PMS_P2;Temp;Humidity;BMP_temperature;BMP_pressure;BME280_temperature;BME280_humidity;BME280_pressure;Samples;Min_cycle;Max_cycle;Signal;HPM_P1;HPM_P2
2021/12/14 00:01:36;;;;;;;23.23;13.98;;;4.10;82.50;;;;;;5057036;28;20302;-32
2021/12/14 00:04:05;;;;;;;24.63;14.10;;;4.00;82.30;;;;;;5056636;28;20032;-37
2021/12/14 00:06:31;;;;;;;23.67;13.30;;;4.00;82.40;;;;;;5057096;28;20435;-32
2021/12/14 00:08:59;;;;;;;24.02;14.40;;;4.00;82.30;;;;;;5056485;28;20129;-38
2021/12/14 00:11:47;;;;;;;25.80;14.20;;;4.00;82.40;;;;;;5057030;28;20294;-31
2021/12/14 00:15:01;;;;;;;25.00;14.52;;;4.00;82.60;;;;;;5056356;28;20037;-38
2021/12/14 00:17:15;;;;;;;24.88;13.75;;;4.00;82.60;;;;;;5056409;28;20029;-37
2021/12/14 00:19:41;;;;;;;24.20;13.57;;;4.00;82.70;;;;;;5056588;28;20041;-32
2021/12/14 00:22:20;;;;;;;22.55;13.48;;;4.00;82.60;;;;;;5056520;28;20452;-37
2021/12/14 00:24:47;;;;;;;29.10;14.85;;;3.90;82.40;;;;;;5056005;28;20455;-31
2021/12/14 00:27:15;;;;;;;24.55;13.77;;;3.90;82.40;;;;;;5056466;28;20031;-38
2021/12/14 00:29:47;;;;;;;25.50;14.60;;;3.90;82.60;;;;;;5056168;28;20041;-37
2021/12/14 00:32:19;;;;;;;24.70;13.88;;;3.90;82.60;;;;;;5056570;28;20067;-37
2021/12/14 00:34:46;;;;;;;23.55;14.35;;;3.90;83.10;;;;;;5055837;28;20064;-39
2021/12/14 00:37:34;;;;;;;27.25;15.13;;;3.90;82.50;;;;;;5055991;28;20123;-32
2021/12/14 00:40:07;;;;;;;29.75;16.23;;;3.90;82.50;;;;;;5056336;28;20060;-39
2021/12/14 00:42:34;;;;;;;26.45;14.88;;;3.80;82.80;;;;;;5056001;28;20017;-37
2021/12/14 00:45:00;;;;;;;25.58;14.70;;;3.80;82.80;;;;;;5056009;28;20029;-32
2021/12/14 00:47:25;;;;;;;26.13;14.82;;;3.80;83.00;;;;;;5056079;28;20025;-38
2021/12/14 00:49:54;;;;;;;23.15;12.77;;;3.80;83.30;;;;;;5055737;28;20078;-32
2021/12/14 00:52:20;;;;;;;28.08;15.73;;;3.80;83.10;;;;;;5056296;28;20098;-37
2021/12/14 00:54:46;;;;;;;25.75;14.38;;;3.80;83.20;;;;;;5055981;28;20039;-38
2021/12/14 00:57:12;;;;;;;24.40;13.77;;;3.80;83.40;;;;;;5055964;28;20413;-37
2021/12/14 00:59:38;;;;;;;26.50;14.05;;;3.80;83.40;;;;;;5055892;28;20044;-38
2021/12/14 01:02:17;;;;;;;23.92;13.73;;;3.90;83.40;;;;;;5056086;28;20029;-38
2021/12/14 01:04:47;;;;;;;24.60;13.52;;;3.80;83.20;;;;;;5055887;28;20040;-32
2021/12/14 01:07:15;;;;;;;26.08;14.80;;;3.90;83.40;;;;;;5056218;28;20118;-32
2021/12/14 01:09:46;;;;;;;24.70;14.27;;;3.80;83.30;;;;;;5055521;28;20444;-37
2021/12/14 01:12:19;;;;;;;23.17;12.82;;;3.80;83.20;;;;;;5055821;28;20029;-32
2021/12/14 01:15:10;;;;;;;26.08;14.07;;;3.80;83.10;;;;;;5055834;28;20040;-32
2021/12/14 01:17:42;;;;;;;28.17;14.52;;;3.80;83.10;;;;;;5055464;28;20029;-38
2021/12/14 01:20:12;;;;;;;23.83;14.73;;;3.80;83.30;;;;;;5055685;28;20033;-32
2021/12/14 01:25:24;;;;;;;21.92;12.35;;;3.70;83.40;;;;;;5055754;28;20322;-38
2021/12/14 01:27:58;;;;;;;21.73;12.82;;;3.80;83.30;;;;;;5055640;28;20040;-32
2021/12/14 01:30:41;;;;;;;24.80;13.93;;;3.70;83.00;;;;;;5055669;28;20028;-32
2021/12/14 01:33:12;;;;;;;21.38;12.15;;;3.70;83.10;;;;;;5055508;28;20029;-38
2021/12/14 01:35:42;;;;;;;23.00;13.00;;;3.70;83.20;;;;;;5055729;28;20029;-38
2021/12/14 01:38:47;;;;;;;26.13;14.65;;;3.70;83.20;;;;;;5055709;28;20033;-32
2021/12/14 01:41:10;;;;;;;21.33;13.32;;;3.70;83.30;;;;;;5054100;28;20048;-38
2021/12/14 01:43:40;;;;;;;22.92;13.40;;;3.70;83.40;;;;;;5055457;28;20063;-37
2021/12/14 01:46:15;;;;;;;23.23;13.07;;;3.60;83.50;;;;;;5055417;28;20091;-32
2021/12/14 01:48:41;;;;;;;23.38;15.43;;;3.60;83.40;;;;;;5055197;28;20029;-39
2021/12/14 01:51:08;;;;;;;26.45;16.55;;;3.60;83.50;;;;;;5055392;28;20053;-38
2021/12/14 01:53:38;;;;;;;24.48;14.02;;;3.60;83.50;;;;;;5055642;28;20413;-37
2021/12/14 01:56:08;;;;;;;26.27;14.52;;;3.60;83.70;;;;;;5055182;28;20029;-38
2021/12/14 01:58:45;;;;;;;25.50;14.38;;;3.60;83.90;;;;;;5055034;28;20396;-32
2021/12/14 02:01:19;;;;;;;25.67;14.52;;;3.60;84.10;;;;;;5055610;28;20337;-31
2021/12/14 02:04:01;;;;;;;22.75;13.95;;;3.60;84.10;;;;;;5055164;28;20025;-31
2021/12/14 02:06:31;;;;;;;23.00;13.13;;;3.60;84.10;;;;;;5055025;28;20106;-31
2021/12/14 02:09:12;;;;;;;25.27;14.32;;;3.60;84.20;;;;;;5054981;28;20056;-38
2021/12/14 02:11:44;;;;;;;26.40;15.50;;;3.60;84.10;;;;;;5055249;28;20052;-37
2021/12/14 02:14:10;;;;;;;22.90;13.63;;;3.60;84.20;;;;;;5055305;28;20098;-38
2021/12/14 02:16:36;;;;;;;21.17;13.02;;;3.60;84.20;;;;;;5055276;28;20108;-37
2021/12/14 02:19:14;;;;;;;25.27;13.77;;;3.60;84.20;;;;;;5054815;28;20021;-32
2021/12/14 02:21:41;;;;;;;23.80;12.50;;;3.70;84.00;;;;;;5055650;28;20364;-38
2021/12/14 02:24:08;;;;;;;25.73;13.88;;;3.70;83.80;;;;;;5058727;28;20370;-38
2021/12/14 02:26:38;;;;;;;25.88;13.23;;;3.70;84.00;;;;;;5058784;28;20021;-32
2021/12/14 02:29:07;;;;;;;22.85;13.18;;;3.70;83.80;;;;;;5058483;28;20439;-32
2021/12/14 02:31:37;;;;;;;23.88;14.02;;;3.60;83.70;;;;;;5058610;28;20032;-32
2021/12/14 02:34:05;;;;;;;26.50;14.05;;;3.70;83.70;;;;;;5058277;28;20478;-31
2021/12/14 02:36:39;;;;;;;24.92;13.05;;;3.70;83.80;;;;;;5058727;28;20082;-38
2021/12/14 02:39:22;;;;;;;23.83;12.93;;;3.70;83.60;;;;;;5058353;28;20417;-38
2021/12/14 02:41:52;;;;;;;22.90;13.57;;;3.60;83.60;;;;;;5058476;28;20036;-37
2021/12/14 02:44:17;;;;;;;22.17;13.15;;;3.60;83.60;;;;;;5058189;28;20065;-38
2021/12/14 02:46:54;;;;;;;26.88;14.38;;;3.60;83.70;;;;;;5058566;28;20056;-38
2021/12/14 02:49:23;;;;;;;25.98;14.23;;;3.60;83.60;;;;;;5056856;28;20466;-38
2021/12/14 02:51:52;;;;;;;24.90;14.25;;;3.60;83.80;;;;;;5057972;28;20068;-32
2021/12/14 02:54:27;;;;;;;26.15;14.77;;;3.60;83.90;;;;;;5058070;28;20079;-38
2021/12/14 02:56:57;;;;;;;27.75;14.50;;;3.60;83.80;;;;;;5057970;28;20083;-32
2021/12/14 02:59:27;;;;;;;27.45;15.75;;;3.60;83.80;;;;;;5057988;28;20021;-32
2021/12/14 03:01:55;;;;;;;32.15;15.98;;;3.60;84.10;;;;;;5057982;28;20124;-32
2021/12/14 03:04:21;;;;;;;29.88;15.05;;;3.60;84.10;;;;;;5058065;28;20064;-38
2021/12/14 03:06:58;;;;;;;26.58;14.15;;;3.60;84.20;;;;;;5058199;28;20056;-32
2021/12/14 03:09:51;;;;;;;27.63;15.73;;;3.70;84.30;;;;;;5057902;28;20090;-32
2021/12/14 03:12:36;;;;;;;29.58;16.30;;;3.70;84.10;;;;;;5058051;28;20056;-38
2021/12/14 03:15:11;;;;;;;33.53;17.02;;;3.70;84.30;;;;;;5057775;28;20025;-32
2021/12/14 03:17:38;;;;;;;32.25;15.65;;;3.70;84.30;;;;;;5057830;28;20369;-33
2021/12/14 03:20:11;;;;;;;30.60;16.00;;;3.70;84.20;;;;;;5057585;28;20025;-38
2021/12/14 03:22:46;;;;;;;32.92;17.38;;;3.70;84.00;;;;;;5057580;28;20029;-39
2021/12/14 03:25:14;;;;;;;38.35;18.35;;;3.70;84.10;;;;;;5057624;28;20067;-39
2021/12/14 03:27:41;;;;;;;33.72;16.90;;;3.70;84.10;;;;;;5057741;28;20321;-38
2021/12/14 03:30:37;;;;;;;30.80;16.50;;;3.70;84.10;;;;;;5057627;28;20025;-37
2021/12/14 03:33:16;;;;;;;33.53;17.63;;;3.80;84.30;;;;;;5056738;28;20044;-38
2021/12/14 03:35:52;;;;;;;33.75;17.50;;;3.70;84.30;;;;;;5057330;28;20116;-33
2021/12/14 03:38:24;;;;;;;32.45;16.85;;;3.80;84.40;;;;;;5057569;28;20079;-38
2021/12/14 03:41:06;;;;;;;25.48;14.40;;;3.80;84.30;;;;;;5057537;28;20033;-32
2021/12/14 03:43:34;;;;;;;32.03;15.32;;;3.80;84.30;;;;;;5057025;28;20036;-37
2021/12/14 03:46:00;;;;;;;29.02;15.95;;;3.80;84.10;;;;;;5057076;28;20029;-38
2021/12/14 03:48:28;;;;;;;29.48;15.38;;;3.80;84.00;;;;;;5056994;28;20024;-32
2021/12/14 03:50:54;;;;;;;27.27;15.80;;;3.80;83.80;;;;;;5056819;28;20403;-38
2021/12/14 03:53:21;;;;;;;30.92;14.88;;;3.80;83.90;;;;;;5057174;28;20021;-37
2021/12/14 03:55:50;;;;;;;30.17;16.25;;;3.80;83.90;;;;;;5056929;28;20310;-38
2021/12/14 03:58:21;;;;;;;28.80;16.13;;;3.80;83.80;;;;;;5057101;28;20089;-38
2021/12/14 04:00:54;;;;;;;;;;;3.80;83.70;;;;;;5057519;28;20417;-34
2021/12/14 04:03:21;;;;;;;30.08;16.73;;;3.80;83.40;;;;;;5057024;28;19904;-32
2021/12/14 04:05:47;;;;;;;28.20;15.20;;;3.70;83.70;;;;;;5055622;28;20059;-32
2021/12/14 04:08:15;;;;;;;33.40;17.70;;;3.70;83.80;;;;;;5056958;28;20432;-38
2021/12/14 04:10:44;;;;;;;29.75;16.38;;;3.70;83.90;;;;;;5056704;28;20032;-38
2021/12/14 04:13:19;;;;;;;34.63;17.17;;;3.70;84.00;;;;;;5056680;28;20021;-37
2021/12/14 04:15:45;;;;;;;31.13;16.33;;;3.70;84.00;;;;;;5055244;28;20040;-32
2021/12/14 04:18:11;;;;;;;33.92;17.13;;;3.70;84.00;;;;;;5056395;28;20056;-38
2021/12/14 04:20:40;;;;;;;29.38;16.38;;;3.70;83.80;;;;;;5056590;28;20318;-38
2021/12/14 04:23:39;;;;;;;33.67;17.35;;;3.70;83.90;;;;;;5056642;28;20316;-32
2021/12/14 04:26:07;;;;;;;33.42;18.02;;;3.70;83.70;;;;;;5056136;28;20483;-38
2021/12/14 04:28:38;;;;;;;41.90;19.45;;;3.70;83.90;;;;;;5056020;28;20079;-32
2021/12/14 04:31:03;;;;;;;34.42;17.20;;;3.70;83.60;;;;;;5056285;28;20025;-38
2021/12/14 04:33:33;;;;;;;30.25;16.90;;;3.70;83.80;;;;;;5056254;28;20111;-33
2021/12/14 04:36:03;;;;;;;35.92;19.35;;;3.70;83.90;;;;;;5056186;28;20036;-31
2021/12/14 04:38:31;;;;;;;36.80;18.20;;;3.70;83.90;;;;;;5055861;28;20051;-32
2021/12/14 04:52:11;;;;;;;29.73;16.23;;;3.70;83.60;;;;;;5055672;28;20064;-31
2021/12/14 04:54:45;;;;;;;27.67;16.02;;;3.70;83.60;;;;;;5056001;28;20126;-35
2021/12/14 04:57:23;;;;;;;29.20;15.88;;;3.60;83.50;;;;;;5056010;28;20112;-31
2021/12/14 04:59:51;;;;;;;29.75;16.40;;;3.60;83.40;;;;;;5055831;28;20074;-32
2021/12/14 05:02:23;;;;;;;32.33;16.67;;;3.60;83.50;;;;;;5055952;28;20041;-32
2021/12/14 05:04:50;;;;;;;31.27;16.80;;;3.60;83.50;;;;;;5056017;28;20251;-31
2021/12/14 05:09:53;;;;;;;33.42;17.50;;;3.60;84.00;;;;;;5055896;28;20118;-39
2021/12/14 05:12:25;;;;;;;28.23;16.63;;;3.60;84.10;;;;;;5055834;28;20107;-32
2021/12/14 05:14:51;;;;;;;27.88;16.27;;;3.60;84.20;;;;;;5055856;28;20052;-32
2021/12/14 05:17:24;;;;;;;29.88;16.15;;;3.50;84.10;;;;;;5055971;28;20033;-32
2021/12/14 05:19:52;;;;;;;32.85;18.27;;;3.50;84.10;;;;;;5055520;28;20026;-31
2021/12/14 05:22:25;;;;;;;33.55;17.23;;;3.50;84.10;;;;;;5055649;28;20053;-32
2021/12/14 05:24:53;;;;;;;35.25;18.10;;;3.50;84.20;;;;;;5055681;28;20040;-31
2021/12/14 05:27:33;;;;;;;31.55;16.40;;;3.50;84.40;;;;;;5055452;28;20158;-32
2021/12/14 05:30:24;;;;;;;31.10;17.38;;;3.50;84.40;;;;;;5055676;28;20108;-37
2021/12/14 05:32:55;;;;;;;;;;;3.50;84.40;;;;;;5055955;28;20033;-32
2021/12/14 05:35:20;;;;;;;34.92;18.77;;;3.50;84.30;;;;;;5055225;28;19916;-32
2021/12/14 05:37:51;;;;;;;38.47;19.90;;;3.50;84.70;;;;;;5055611;28;20343;-38
2021/12/14 05:40:39;;;;;;;36.95;19.02;;;3.50;84.80;;;;;;5055405;28;20030;-38
2021/12/14 05:43:15;;;;;;;34.17;19.23;;;3.50;85.00;;;;;;5055247;28;20456;-37
2021/12/14 05:45:45;;;;;;;30.17;17.05;;;3.50;85.00;;;;;;5055427;28;20379;-33
2021/12/14 05:48:17;;;;;;;35.55;19.42;;;3.50;84.90;;;;;;5055543;28;20033;-32
2021/12/14 05:50:46;;;;;;;34.28;18.40;;;3.50;84.80;;;;;;5055275;28;20052;-38
2021/12/14 05:53:33;;;;;;;30.20;17.77;;;3.50;85.00;;;;;;5055446;28;20363;-38
2021/12/14 05:56:05;;;;;;;34.70;18.10;;;3.60;84.90;;;;;;5055807;28;20068;-32
2021/12/14 05:58:31;;;;;;;40.75;23.85;;;3.60;85.00;;;;;;5058974;28;20025;-37
2021/12/14 06:01:05;;;;;;;29.85;17.85;;;3.60;85.00;;;;;;5058930;28;20021;-38
2021/12/14 06:03:35;;;;;;;32.47;18.00;;;3.60;84.90;;;;;;5058852;28;20028;-38
2021/12/14 06:06:02;;;;;;;33.58;18.85;;;3.60;84.90;;;;;;5058763;28;20032;-32
2021/12/14 06:08:33;;;;;;;29.92;17.88;;;3.60;85.00;;;;;;5058922;28;20029;-31
2021/12/14 06:10:59;;;;;;;32.72;18.20;;;3.60;84.90;;;;;;5058418;28;20087;-32
2021/12/14 06:13:40;;;;;;;31.90;17.58;;;3.70;85.10;;;;;;5058616;28;20417;-32
2021/12/14 06:16:08;;;;;;;34.03;18.92;;;3.70;84.90;;;;;;5058589;28;20040;-32
2021/12/14 06:18:34;;;;;;;32.55;18.00;;;3.60;84.70;;;;;;5058249;28;20021;-37
2021/12/14 06:21:00;;;;;;;28.75;16.30;;;3.70;84.90;;;;;;5058821;28;20079;-32
2021/12/14 06:23:28;;;;;;;32.38;17.20;;;3.70;84.90;;;;;;5058778;28;20409;-37
2021/12/14 06:25:55;;;;;;;32.25;18.02;;;3.70;84.50;;;;;;5058556;28;20033;-31
2021/12/14 06:28:26;;;;;;;32.90;18.42;;;3.70;84.50;;;;;;5058106;28;20413;-32
2021/12/14 06:30:52;;;;;;;32.63;17.17;;;3.70;84.20;;;;;;5058362;28;20043;-37
2021/12/14 06:33:18;;;;;;;36.45;18.70;;;3.70;84.10;;;;;;5058414;28;20474;-32
2021/12/14 06:35:51;;;;;;;26.35;16.63;;;3.70;84.10;;;;;;5058553;28;20037;-31
2021/12/14 06:38:27;;;;;;;32.45;17.85;;;3.70;84.20;;;;;;5058245;28;20054;-32
2021/12/14 06:40:55;;;;;;;34.78;18.42;;;3.70;84.20;;;;;;5056680;28;20447;-31
2021/12/14 06:43:28;;;;;;;34.50;17.40;;;3.70;84.30;;;;;;5058387;28;20033;-38
2021/12/14 06:45:57;;;;;;;33.85;16.80;;;3.70;84.50;;;;;;5058173;28;20045;-38
2021/12/14 06:48:34;;;;;;;30.50;17.70;;;3.70;84.50;;;;;;5057807;28;20058;-38
2021/12/14 06:51:12;;;;;;;35.88;17.75;;;3.70;84.40;;;;;;5057722;28;20113;-38
2021/12/14 06:53:38;;;;;;;29.15;15.40;;;3.70;84.60;;;;;;5057668;28;20025;-33
2021/12/14 06:56:08;;;;;;;28.23;15.82;;;3.70;84.60;;;;;;5057676;28;20163;-38
2021/12/14 06:58:48;;;;;;;34.43;17.63;;;3.70;84.40;;;;;;5057833;28;20021;-32
2021/12/14 07:01:18;;;;;;;32.33;17.08;;;3.70;84.10;;;;;;5057671;28;20053;-32
2021/12/14 07:03:51;;;;;;;38.55;17.48;;;3.70;84.20;;;;;;5057553;28;20108;-31
2021/12/14 07:06:30;;;;;;;30.80;16.05;;;3.70;84.10;;;;;;5057666;28;20409;-31
2021/12/14 07:09:02;;;;;;;30.88;15.93;;;3.70;84.30;;;;;;5056941;28;20106;-31
2021/12/14 07:11:28;;;;;;;29.48;17.10;;;3.70;84.30;;;;;;5058019;28;20028;-37
2021/12/14 07:13:55;;;;;;;36.83;17.55;;;3.70;84.30;;;;;;5057176;28;20375;-32
2021/12/14 07:16:31;;;;;;;29.88;15.82;;;3.70;84.20;;;;;;5057520;28;20025;-32
2021/12/14 07:19:01;;;;;;;36.55;17.25;;;3.70;84.30;;;;;;5057355;28;20036;-38
2021/12/14 07:21:39;;;;;;;32.85;16.92;;;3.70;84.10;;;;;;5057350;28;20163;-32
2021/12/14 07:24:30;;;;;;;36.35;18.73;;;3.60;84.20;;;;;;5057222;28;20029;-38
2021/12/14 07:27:14;;;;;;;35.88;17.05;;;3.60;84.20;;;;;;5057059;28;20044;-31
2021/12/14 07:29:40;;;;;;;35.78;18.13;;;3.60;84.20;;;;;;5056837;28;20370;-32
2021/12/14 07:32:06;;;;;;;37.33;16.52;;;3.60;84.60;;;;;;5057167;28;20167;-38
2021/12/14 07:34:32;;;;;;;37.35;16.45;;;3.60;84.70;;;;;;5057231;28;20033;-32
2021/12/14 07:36:58;;;;;;;39.10;18.73;;;3.60;84.60;;;;;;5057121;28;20029;-37
2021/12/14 07:39:24;;;;;;;32.22;16.80;;;3.60;84.60;;;;;;5057234;28;20447;-32
2021/12/14 07:41:52;;;;;;;35.85;18.50;;;3.60;84.60;;;;;;5057504;28;20060;-32
2021/12/14 07:44:20;;;;;;;33.22;17.75;;;3.60;84.80;;;;;;5056499;28;20444;-32
2021/12/14 07:46:56;;;;;;;34.67;17.80;;;3.70;85.00;;;;;;5056922;28;20029;-39
2021/12/14 07:49:29;;;;;;;35.30;17.63;;;3.70;85.20;;;;;;5056863;28;20291;-39
2021/12/14 07:52:02;;;;;;;30.85;16.10;;;3.70;85.20;;;;;;5057096;28;20388;-39
2021/12/14 07:54:32;;;;;;;34.13;17.75;;;3.70;85.00;;;;;;5056692;28;20033;-31
2021/12/14 07:57:07;;;;;;;33.75;17.38;;;3.70;85.00;;;;;;5056773;28;20380;-32
2021/12/14 07:59:42;;;;;;;39.17;17.02;;;3.70;85.10;;;;;;5056179;28;20055;-38
2021/12/14 08:02:15;;;;;;;32.67;17.77;;;3.70;84.90;;;;;;5056794;28;20103;-38
2021/12/14 08:04:47;;;;;;;35.28;17.58;;;3.80;84.90;;;;;;5056438;28;20053;-31
2021/12/14 08:07:54;;;;;;;33.55;17.08;;;3.80;84.90;;;;;;5056778;28;20032;-37
2021/12/14 08:10:30;;;;;;;40.95;18.48;;;3.70;84.70;;;;;;5056339;28;20043;-32
2021/12/14 08:13:09;;;;;;;35.63;17.60;;;3.80;84.90;;;;;;5056870;28;20033;-32
2021/12/14 08:15:59;;;;;;;32.92;17.00;;;3.80;84.90;;;;;;5056594;28;20029;-31
2021/12/14 08:18:31;;;;;;;35.90;16.88;;;3.80;84.90;;;;;;5056410;28;20037;-38
2021/12/14 08:21:25;;;;;;;32.88;15.85;;;3.70;84.60;;;;;;5055521;28;20340;-38
2021/12/14 08:23:57;;;;;;;33.20;16.83;;;3.80;84.50;;;;;;5055613;28;20354;-31
2021/12/14 08:26:51;;;;;;;34.28;15.68;;;3.70;85.00;;;;;;5056314;28;20029;-32
2021/12/14 08:29:23;;;;;;;31.45;16.90;;;3.80;85.10;;;;;;5055334;28;20033;-38
2021/12/14 08:32:13;;;;;;;28.95;15.60;;;3.80;85.20;;;;;;5055905;28;20064;-38
2021/12/14 08:34:44;;;;;;;35.15;16.27;;;3.80;84.90;;;;;;5055814;28;20029;-38
2021/12/14 08:37:17;;;;;;;28.50;15.10;;;3.80;84.70;;;;;;5055925;28;20436;-32
2021/12/14 08:39:51;;;;;;;29.17;14.55;;;3.70;84.50;;;;;;5055864;28;20320;-32
2021/12/14 08:42:29;;;;;;;28.40;15.73;;;3.80;84.50;;;;;;5056312;28;20123;-38
2021/12/14 08:44:58;;;;;;;28.02;16.00;;;3.80;84.70;;;;;;5055993;28;20575;-31
2021/12/14 08:47:36;;;;;;;34.20;16.92;;;3.80;84.50;;;;;;5055741;28;20029;-39
2021/12/14 08:50:11;;;;;;;34.83;17.90;;;3.80;84.60;;;;;;5055511;28;20061;-32
2021/12/14 08:52:37;;;;;;;24.52;13.85;;;3.80;84.70;;;;;;5055825;28;20032;-32
2021/12/14 08:55:08;;;;;;;23.45;13.77;;;3.80;84.50;;;;;;5055675;28;20063;-38
2021/12/14 08:57:34;;;;;;;31.40;15.55;;;3.70;84.50;;;;;;5055955;28;20040;-39
2021/12/14 09:00:13;;;;;;;45.35;16.83;;;3.70;84.60;;;;;;5055630;28;20409;-32
2021/12/14 09:02:41;;;;;;;30.73;15.93;;;3.70;84.60;;;;;;5055532;28;20025;-38
2021/12/14 09:05:14;;;;;;;27.60;14.80;;;3.70;84.40;;;;;;5055478;28;20417;-38
2021/12/14 09:07:40;;;;;;;30.30;16.83;;;3.80;84.40;;;;;;5055366;28;20040;-32
2021/12/14 09:10:12;;;;;;;31.15;16.05;;;3.70;84.40;;;;;;5055410;28;20058;-32
2021/12/14 09:12:42;;;;;;;33.90;16.65;;;3.70;84.50;;;;;;5055593;28;20033;-38
2021/12/14 09:15:13;;;;;;;28.10;15.43;;;3.70;84.60;;;;;;5055649;28;20040;-37
2021/12/14 09:17:38;;;;;;;;;;;3.70;84.90;;;;;;5055998;28;20309;-39
2021/12/14 09:20:09;;;;;;;33.90;15.27;;;3.70;85.30;;;;;;5055269;28;19912;-37
2021/12/14 09:22:41;;;;;;;30.17;15.13;;;3.70;85.00;;;;;;5055541;28;20021;-38
2021/12/14 09:25:09;;;;;;;30.85;16.10;;;3.70;85.20;;;;;;5055333;28;20126;-38
2021/12/14 09:27:35;;;;;;;28.00;14.85;;;3.70;85.20;;;;;;5055152;28;20056;-38
2021/12/14 09:30:04;;;;;;;32.10;15.23;;;3.80;85.10;;;;;;5054716;28;20033;-38
2021/12/14 09:32:30;;;;;;;33.70;16.95;;;3.80;84.90;;;;;;5058456;28;20033;-39
2021/12/14 09:34:58;;;;;;;33.63;17.17;;;3.70;84.90;;;;;;5059291;28;20048;-32
2021/12/14 09:37:26;;;;;;;32.97;16.17;;;3.80;85.10;;;;;;5059197;28;20119;-32
2021/12/14 09:39:55;;;;;;;36.15;15.57;;;3.80;85.20;;;;;;5058746;28;20037;-39
2021/12/14 09:42:31;;;;;;;31.65;16.15;;;3.80;85.50;;;;;;5059310;28;20044;-32
2021/12/14 09:45:05;;;;;;;30.70;16.10;;;3.80;85.50;;;;;;5058772;28;20455;-39
2021/12/14 09:47:31;;;;;;;29.08;14.40;;;3.80;85.50;;;;;;5059322;28;20057;-32
2021/12/14 09:50:00;;;;;;;28.88;14.90;;;3.90;85.60;;;;;;5058489;28;20057;-32
2021/12/14 09:52:31;;;;;;;29.77;14.52;;;3.90;85.30;;;;;;5059189;28;20429;-32
2021/12/14 09:54:59;;;;;;;29.83;14.88;;;3.90;85.10;;;;;;5058550;28;20033;-32
2021/12/14 09:57:29;;;;;;;28.27;13.60;;;3.90;85.00;;;;;;5058902;28;20119;-32
2021/12/14 09:59:57;;;;;;;25.83;14.23;;;3.90;85.00;;;;;;5058252;28;20056;-32
2021/12/14 10:02:28;;;;;;;29.05;13.93;;;4.00;85.00;;;;;;5058438;28;20051;-38
2021/12/14 10:04:58;;;;;;;35.22;17.73;;;4.00;84.60;;;;;;5058693;28;20036;-38
2021/12/14 10:07:25;;;;;;;30.17;14.48;;;4.00;84.50;;;;;;5058677;28;20040;-32
2021/12/14 10:09:55;;;;;;;26.15;13.48;;;3.90;84.80;;;;;;5058671;28;20052;-38
2021/12/14 10:15:20;;;;;;;24.42;12.43;;;3.90;84.50;;;;;;5058866;28;20363;-38
2021/12/14 10:17:47;;;;;;;21.98;12.93;;;4.00;84.30;;;;;;5058625;28;20028;-38
2021/12/14 10:20:21;;;;;;;21.35;11.98;;;3.90;84.40;;;;;;5055887;28;20295;-32
2021/12/14 10:22:51;;;;;;;21.25;12.57;;;3.90;84.50;;;;;;5058606;28;20104;-38
2021/12/14 10:25:22;;;;;;;23.80;12.73;;;3.90;84.40;;;;;;5058549;28;20025;-38
2021/12/14 10:27:48;;;;;;;25.70;13.95;;;3.90;84.40;;;;;;5058182;28;20271;-32
2021/12/14 10:30:23;;;;;;;26.27;13.25;;;3.90;84.50;;;;;;5057598;28;20033;-31
2021/12/14 10:32:49;;;;;;;23.38;12.75;;;3.90;85.10;;;;;;5057573;28;20029;-32
2021/12/14 10:35:22;;;;;;;24.38;12.98;;;3.90;84.50;;;;;;5057880;28;20025;-38
2021/12/14 10:43:18;;;;;;;25.95;14.85;;;3.90;84.40;;;;;;5056884;28;20032;-45
2021/12/14 10:45:55;;;;;;;25.83;14.02;;;3.90;84.60;;;;;;5057815;28;20057;-36
2021/12/14 10:48:25;;;;;;;31.73;16.25;;;3.90;84.70;;;;;;5057807;28;20104;-34
2021/12/14 10:50:52;;;;;;;29.92;14.55;;;4.00;84.80;;;;;;5057363;28;20076;-45
2021/12/14 10:53:20;;;;;;;26.75;13.52;;;4.00;84.90;;;;;;5057830;28;20433;-36
2021/12/14 10:56:09;;;;;;;24.15;12.90;;;4.00;85.30;;;;;;5057486;28;20037;-35
2021/12/14 10:58:35;;;;;;;25.08;12.85;;;4.00;84.50;;;;;;5057427;28;20025;-44
2021/12/14 11:01:32;;;;;;;24.67;13.13;;;4.00;84.50;;;;;;5057415;28;20033;-45
2021/12/14 11:04:08;;;;;;;25.25;12.95;;;4.00;84.20;;;;;;5056973;28;20037;-45
2021/12/14 11:06:37;;;;;;;22.20;12.02;;;4.00;84.50;;;;;;5057481;28;20051;-45
2021/12/14 11:11:45;;;;;;;24.08;13.20;;;3.90;84.30;;;;;;5057473;28;20160;-45
2021/12/14 11:14:14;;;;;;;25.13;13.98;;;3.90;84.10;;;;;;5057454;28;20055;-44
2021/12/14 11:19:40;;;;;;;27.02;13.95;;;3.90;83.90;;;;;;5057231;28;20059;-38
2021/12/14 11:22:14;;;;;;;23.25;12.98;;;3.90;84.00;;;;;;5057145;28;20460;-38
2021/12/14 11:24:43;;;;;;;28.45;13.50;;;3.90;84.00;;;;;;5056485;28;20459;-37
2021/12/14 11:27:21;;;;;;;28.63;14.32;;;3.90;84.00;;;;;;5056787;28;20033;-46
2021/12/14 11:29:55;;;;;;;24.58;13.27;;;3.90;84.00;;;;;;5056735;28;20120;-45
2021/12/14 11:32:24;;;;;;;26.73;13.02;;;3.90;84.30;;;;;;5057187;28;20318;-40
2021/12/14 11:34:50;;;;;;;26.98;12.60;;;3.90;84.20;;;;;;5057161;28;20044;-44
2021/12/14 11:37:22;;;;;;;26.15;13.13;;;3.90;84.10;;;;;;5056565;28;20096;-45
2021/12/14 11:39:52;;;;;;;25.27;11.70;;;3.90;84.20;;;;;;5056623;28;20083;-38
2021/12/14 11:42:22;;;;;;;26.45;13.65;;;3.90;84.10;;;;;;5056911;28;20075;-45
2021/12/14 11:44:51;;;;;;;24.30;12.02;;;3.80;84.40;;;;;;5056567;28;20072;-39
2021/12/14 11:50:13;;;;;;;26.00;13.15;;;3.90;84.50;;;;;;5056456;28;20057;-38
2021/12/14 11:53:07;;;;;;;28.45;14.15;;;3.90;84.30;;;;;;5056403;28;20102;-45
2021/12/14 11:55:49;;;;;;;49.65;21.70;;;3.90;84.10;;;;;;5056351;28;20041;-40
2021/12/14 11:58:18;;;;;;;26.35;14.05;;;3.80;83.80;;;;;;5056689;28;20086;-45
2021/12/14 12:00:51;;;;;;;26.98;14.45;;;3.80;83.80;;;;;;5056341;28;20095;-45
2021/12/14 12:03:37;;;;;;;28.80;14.32;;;3.80;83.80;;;;;;5056407;28;20025;-38
2021/12/14 12:06:14;;;;;;;26.40;14.05;;;3.80;83.70;;;;;;5056400;28;20043;-45
2021/12/14 12:11:39;;;;;;;26.98;14.13;;;3.80;84.00;;;;;;5056794;28;20036;-45
2021/12/14 12:14:24;;;;;;;30.20;15.20;;;3.70;84.10;;;;;;5055642;28;20045;-43
2021/12/14 12:16:52;;;;;;;29.25;15.77;;;3.70;84.10;;;;;;5056107;28;20122;-38
2021/12/14 12:19:25;;;;;;;27.42;14.23;;;3.70;84.30;;;;;;5056117;28;20041;-44
2021/12/14 12:21:51;;;;;;;29.13;16.05;;;3.70;84.30;;;;;;5056058;28;20061;-46
2021/12/14 12:24:50;;;;;;;31.27;17.10;;;3.70;84.30;;;;;;5056033;28;20047;-44
2021/12/14 12:27:47;;;;;;;31.05;15.60;;;3.70;84.10;;;;;;5054281;28;20044;-39
2021/12/14 12:30:26;;;;;;;29.40;15.18;;;3.70;84.50;;;;;;5055458;28;20041;-45
2021/12/14 12:32:51;;;;;;;24.38;14.75;;;3.80;84.70;;;;;;5056006;28;20040;-44
2021/12/14 12:35:29;;;;;;;26.65;15.48;;;3.80;84.70;;;;;;5055676;28;20033;-36
2021/12/14 12:37:57;;;;;;;29.00;16.05;;;3.80;84.70;;;;;;5055620;28;20436;-41
2021/12/14 12:40:46;;;;;;;35.40;17.95;;;3.80;84.70;;;;;;5055773;28;20021;-44
2021/12/14 12:43:23;;;;;;;32.03;18.40;;;3.80;84.60;;;;;;5055575;28;20453;-45
2021/12/14 12:46:16;;;;;;;31.88;17.45;;;3.90;84.70;;;;;;5055604;28;20078;-39
2021/12/14 12:48:53;;;;;;;28.63;15.70;;;3.90;84.50;;;;;;5054510;28;20033;-46
2021/12/14 12:51:56;;;;;;;32.10;16.13;;;3.90;84.50;;;;;;5055124;28;20076;-37
2021/12/14 12:54:33;;;;;;;31.02;16.65;;;3.90;84.30;;;;;;5055135;28;20037;-45
2021/12/14 12:57:10;;;;;;;32.90;16.75;;;3.90;84.20;;;;;;5055354;28;20106;-46
2021/12/14 12:59:57;;;;;;;35.47;17.30;;;3.90;84.30;;;;;;5055198;28;20036;-46
2021/12/14 13:02:34;;;;;;;28.90;16.42;;;3.90;84.10;;;;;;5055145;28;20025;-39
2021/12/14 13:05:20;;;;;;;31.63;17.00;;;3.90;84.20;;;;;;5054973;28;20036;-40
2021/12/14 13:08:01;;;;;;;33.55;17.15;;;3.90;84.10;;;;;;5055534;28;20048;-46
2021/12/14 13:10:35;;;;;;;32.38;15.80;;;3.90;84.20;;;;;;5055397;28;20083;-45
2021/12/14 13:13:10;;;;;;;37.33;17.88;;;3.90;84.00;;;;;;5055556;28;20086;-45
2021/12/14 13:15:52;;;;;;;37.22;19.00;;;3.90;84.00;;;;;;5055185;28;20033;-41
2021/12/14 13:18:23;;;;;;;35.22;17.85;;;3.80;83.90;;;;;;5055033;28;20040;-39
2021/12/14 13:20:54;;;;;;;36.95;18.90;;;3.90;84.00;;;;;;5055292;28;20037;-45
2021/12/14 13:23:22;;;;;;;;;;;3.80;84.10;;;;;;5056094;28;20032;-41
2021/12/14 13:25:49;;;;;;;36.72;17.05;;;3.80;84.00;;;;;;5055129;28;19985;-45
2021/12/14 13:28:15;;;;;;;38.22;19.90;;;3.80;84.40;;;;;;5055190;28;20028;-44
2021/12/14 13:30:42;;;;;;;45.65;21.55;;;3.80;84.70;;;;;;5054704;28;20325;-45
2021/12/14 13:33:25;;;;;;;38.72;17.90;;;3.90;84.90;;;;;;5055141;28;20044;-44
2021/12/14 13:35:51;;;;;;;37.90;18.90;;;3.90;84.70;;;;;;5054757;28;20095;-39
2021/12/14 13:38:16;;;;;;;43.03;19.52;;;3.80;84.50;;;;;;5054797;28;20025;-37
2021/12/14 13:40:45;;;;;;;30.52;17.20;;;3.80;84.50;;;;;;5055184;28;20033;-44
2021/12/14 13:43:10;;;;;;;35.95;17.05;;;3.90;84.70;;;;;;5055084;28;20053;-34